sensor_id;sensor_type;location;lat;lon;timestamp;P1;durP1;ratioP1;P2;durP2;ratioP2
62014;SDS011;47970;52.396;9.586;2023-03-31T00:00:41;8.77;;;2.33;;
62014;SDS011;47970;52.396;9.586;2023-03-31T00:03:07;9.93;;;2.23;;
62014;SDS011;47970;52.396;9.586;2023-03-31T00:05:35;6.50;;;1.58;;
62014;SDS011;47970;52.396;9.586;2023-03-31T00:08:01;7.78;;;1.60;;
62014;SDS011;47970;52.396;9.586;2023-03-31T00:10:27;7.13;;;2.00;;
62014;SDS011;47970;52.396;9.586;2023-03-31T00:12:52;6.28;;;1.42;;
62014;SDS011;47970;52.396;9.586;2023-03-31T00:15:18;8.27;;;1.30;;
62014;SDS011;47970;52.396;9.586;2023-03-31T00:17:43;11.35;;;1.67;;
62014;SDS011;47970;52.396;9.586;2023-03-31T00:20:08;8.10;;;1.80;;
62014;SDS011;47970;52.396;9.586;2023-03-31T00:22:36;7.80;;;1.58;;
62014;SDS011;47970;52.396;9.586;2023-03-31T00:25:02;7.22;;;1.80;;
62014;SDS011;47970;52.396;9.586;2023-03-31T00:27:28;6.60;;;1.38;;
62014;SDS011;47970;52.396;9.586;2023-03-31T00:29:53;7.50;;;1.83;;
62014;SDS011;47970;52.396;9.586;2023-03-31T00:32:18;5.60;;;1.58;;
62014;SDS011;47970;52.396;9.586;2023-03-31T00:34:44;5.55;;;1.63;;
62014;SDS011;47970;52.396;9.586;2023-03-31T00:37:10;11.65;;;1.70;;
62014;SDS011;47970;52.396;9.586;2023-03-31T00:39:38;7.03;;;1.30;;
62014;SDS011;47970;52.396;9.586;2023-03-31T00:42:04;10.70;;;1.98;;
62014;SDS011;47970;52.396;9.586;2023-03-31T00:44:29;3.70;;;1.30;;
62014;SDS011;47970;52.396;9.586;2023-03-31T00:47:11;10.95;;;2.05;;
62014;SDS011;47970;52.396;9.586;2023-03-31T00:49:38;5.13;;;1.15;;
62014;SDS011;47970;52.396;9.586;2023-03-31T00:54:30;4.07;;;1.53;;
62014;SDS011;47970;52.396;9.586;2023-03-31T00:56:57;4.43;;;1.00;;
62014;SDS011;47970;52.396;9.586;2023-03-31T00:59:24;6.60;;;1.65;;
62014;SDS011;47970;52.396;9.586;2023-03-31T01:01:51;8.70;;;1.30;;
62014;SDS011;47970;52.396;9.586;2023-03-31T01:04:18;5.35;;;1.15;;
62014;SDS011;47970;52.396;9.586;2023-03-31T01:06:52;9.02;;;1.20;;
62014;SDS011;47970;52.396;9.586;2023-03-31T01:09:21;8.15;;;1.42;;
62014;SDS011;47970;52.396;9.586;2023-03-31T01:11:46;7.88;;;1.73;;
62014;SDS011;47970;52.396;9.586;2023-03-31T01:14:12;8.27;;;1.73;;
62014;SDS011;47970;52.396;9.586;2023-03-31T01:16:38;5.57;;;1.77;;
62014;SDS011;47970;52.396;9.586;2023-03-31T01:19:04;8.13;;;1.20;;
62014;SDS011;47970;52.396;9.586;2023-03-31T01:40:07;6.90;;;1.27;;
62014;SDS011;47970;52.396;9.586;2023-03-31T01:42:36;6.28;;;1.83;;
62014;SDS011;47970;52.396;9.586;2023-03-31T01:45:15;4.85;;;1.70;;
62014;SDS011;47970;52.396;9.586;2023-03-31T01:47:50;4.78;;;1.42;;
62014;SDS011;47970;52.396;9.586;2023-03-31T01:50:29;4.03;;;1.17;;
62014;SDS011;47970;52.396;9.586;2023-03-31T01:53:03;7.65;;;1.40;;
62014;SDS011;47970;52.396;9.586;2023-03-31T01:55:35;4.47;;;1.30;;
62014;SDS011;47970;52.396;9.586;2023-03-31T01:58:20;7.57;;;2.05;;
62014;SDS011;47970;52.396;9.586;2023-03-31T02:00:54;9.80;;;1.80;;
62014;SDS011;47970;52.396;9.586;2023-03-31T02:03:36;6.05;;;2.03;;
62014;SDS011;47970;52.396;9.586;2023-03-31T02:06:15;5.10;;;1.30;;
62014;SDS011;47970;52.396;9.586;2023-03-31T02:08:45;7.10;;;1.73;;
62014;SDS011;47970;52.396;9.586;2023-03-31T02:11:12;6.28;;;1.60;;
62014;SDS011;47970;52.396;9.586;2023-03-31T02:13:38;9.45;;;1.58;;
62014;SDS011;47970;52.396;9.586;2023-03-31T02:16:05;9.60;;;1.63;;
62014;SDS011;47970;52.396;9.586;2023-03-31T02:18:33;8.43;;;1.80;;
62014;SDS011;47970;52.396;9.586;2023-03-31T02:21:02;7.15;;;1.80;;
62014;SDS011;47970;52.396;9.586;2023-03-31T02:23:27;6.85;;;1.80;;
62014;SDS011;47970;52.396;9.586;2023-03-31T02:26:29;6.05;;;2.05;;
62014;SDS011;47970;52.396;9.586;2023-03-31T02:28:46;7.13;;;2.10;;
62014;SDS011;47970;52.396;9.586;2023-03-31T02:33:37;7.20;;;1.70;;
62014;SDS011;47970;52.396;9.586;2023-03-31T02:36:02;5.07;;;2.00;;
62014;SDS011;47970;52.396;9.586;2023-03-31T02:38:29;9.68;;;2.15;;
62014;SDS011;47970;52.396;9.586;2023-03-31T02:40:55;6.18;;;1.60;;
62014;SDS011;47970;52.396;9.586;2023-03-31T02:43:21;10.90;;;1.80;;
62014;SDS011;47970;52.396;9.586;2023-03-31T02:45:47;6.33;;;1.90;;
62014;SDS011;47970;52.396;9.586;2023-03-31T02:53:16;6.45;;;1.58;;
62014;SDS011;47970;52.396;9.586;2023-03-31T03:00:58;8.10;;;1.90;;
62014;SDS011;47970;52.396;9.586;2023-03-31T03:06:16;5.22;;;1.30;;
62014;SDS011;47970;52.396;9.586;2023-03-31T03:08:49;10.90;;;1.50;;
62014;SDS011;47970;52.396;9.586;2023-03-31T03:11:45;5.22;;;1.42;;
62014;SDS011;47970;52.396;9.586;2023-03-31T03:16:32;5.30;;;1.10;;
62014;SDS011;47970;52.396;9.586;2023-03-31T03:19:02;6.18;;;1.23;;
62014;SDS011;47970;52.396;9.586;2023-03-31T03:21:28;3.53;;;0.95;;
62014;SDS011;47970;52.396;9.586;2023-03-31T03:23:53;11.75;;;1.30;;
62014;SDS011;47970;52.396;9.586;2023-03-31T03:26:18;3.65;;;1.13;;
62014;SDS011;47970;52.396;9.586;2023-03-31T03:28:48;7.33;;;1.47;;
62014;SDS011;47970;52.396;9.586;2023-03-31T03:31:13;5.57;;;1.10;;
62014;SDS011;47970;52.396;9.586;2023-03-31T03:33:39;7.50;;;2.47;;
62014;SDS011;47970;52.396;9.586;2023-03-31T03:36:05;5.35;;;1.05;;
62014;SDS011;47970;52.396;9.586;2023-03-31T03:38:31;5.88;;;1.08;;
62014;SDS011;47970;52.396;9.586;2023-03-31T03:40:56;7.03;;;1.20;;
62014;SDS011;47970;52.396;9.586;2023-03-31T03:43:21;7.40;;;1.50;;
62014;SDS011;47970;52.396;9.586;2023-03-31T03:45:50;7.37;;;1.47;;
62014;SDS011;47970;52.396;9.586;2023-03-31T03:48:15;2.80;;;0.88;;
62014;SDS011;47970;52.396;9.586;2023-03-31T03:50:41;5.43;;;1.38;;
62014;SDS011;47970;52.396;9.586;2023-03-31T03:53:06;6.57;;;1.25;;
62014;SDS011;47970;52.396;9.586;2023-03-31T03:55:32;6.38;;;1.40;;
62014;SDS011;47970;52.396;9.586;2023-03-31T03:57:57;7.03;;;1.00;;
62014;SDS011;47970;52.396;9.586;2023-03-31T04:00:22;11.53;;;2.70;;
62014;SDS011;47970;52.396;9.586;2023-03-31T04:02:47;4.82;;;0.90;;
62014;SDS011;47970;52.396;9.586;2023-03-31T04:05:13;3.70;;;1.30;;
62014;SDS011;47970;52.396;9.586;2023-03-31T04:07:38;5.50;;;1.20;;
62014;SDS011;47970;52.396;9.586;2023-03-31T04:10:03;5.23;;;0.90;;
62014;SDS011;47970;52.396;9.586;2023-03-31T04:12:28;9.25;;;1.23;;
62014;SDS011;47970;52.396;9.586;2023-03-31T04:14:54;5.75;;;1.27;;
62014;SDS011;47970;52.396;9.586;2023-03-31T04:17:19;7.43;;;1.20;;
62014;SDS011;47970;52.396;9.586;2023-03-31T04:19:57;5.20;;;0.98;;
62014;SDS011;47970;52.396;9.586;2023-03-31T04:22:26;7.90;;;1.08;;
62014;SDS011;47970;52.396;9.586;2023-03-31T04:24:53;4.07;;;0.77;;
62014;SDS011;47970;52.396;9.586;2023-03-31T04:27:22;5.68;;;1.00;;
62014;SDS011;47970;52.396;9.586;2023-03-31T04:29:51;5.25;;;0.77;;
62014;SDS011;47970;52.396;9.586;2023-03-31T04:32:19;4.60;;;1.00;;
62014;SDS011;47970;52.396;9.586;2023-03-31T04:34:45;5.20;;;1.50;;
62014;SDS011;47970;52.396;9.586;2023-03-31T04:37:11;5.28;;;1.30;;
62014;SDS011;47970;52.396;9.586;2023-03-31T04:39:36;5.17;;;1.20;;
62014;SDS011;47970;52.396;9.586;2023-03-31T04:42:01;4.60;;;1.20;;
62014;SDS011;47970;52.396;9.586;2023-03-31T04:44:26;6.82;;;1.05;;
62014;SDS011;47970;52.396;9.586;2023-03-31T04:46:52;3.65;;;1.08;;
62014;SDS011;47970;52.396;9.586;2023-03-31T04:49:18;3.60;;;1.00;;
62014;SDS011;47970;52.396;9.586;2023-03-31T04:51:43;7.05;;;1.48;;
62014;SDS011;47970;52.396;9.586;2023-03-31T04:54:09;8.15;;;1.25;;
62014;SDS011;47970;52.396;9.586;2023-03-31T04:56:34;8.32;;;1.30;;
62014;SDS011;47970;52.396;9.586;2023-03-31T04:58:59;5.90;;;1.30;;
62014;SDS011;47970;52.396;9.586;2023-03-31T05:01:24;6.53;;;1.53;;
62014;SDS011;47970;52.396;9.586;2023-03-31T05:03:49;5.43;;;1.10;;
62014;SDS011;47970;52.396;9.586;2023-03-31T05:06:15;6.17;;;1.07;;
62014;SDS011;47970;52.396;9.586;2023-03-31T05:08:40;5.85;;;1.25;;
62014;SDS011;47970;52.396;9.586;2023-03-31T05:11:06;3.50;;;0.90;;
62014;SDS011;47970;52.396;9.586;2023-03-31T05:13:31;4.97;;;0.80;;
62014;SDS011;47970;52.396;9.586;2023-03-31T05:15:57;5.45;;;1.38;;
62014;SDS011;47970;52.396;9.586;2023-03-31T05:18:22;4.13;;;0.80;;
62014;SDS011;47970;52.396;9.586;2023-03-31T05:20:47;5.53;;;1.05;;
62014;SDS011;47970;52.396;9.586;2023-03-31T05:23:12;1.77;;;0.83;;
62014;SDS011;47970;52.396;9.586;2023-03-31T05:25:38;3.63;;;1.17;;
62014;SDS011;47970;52.396;9.586;2023-03-31T05:28:03;9.88;;;1.15;;
62014;SDS011;47970;52.396;9.586;2023-03-31T05:30:28;6.22;;;1.10;;
62014;SDS011;47970;52.396;9.586;2023-03-31T05:32:54;3.80;;;0.93;;
62014;SDS011;47970;52.396;9.586;2023-03-31T05:35:20;3.13;;;1.60;;
62014;SDS011;47970;52.396;9.586;2023-03-31T05:37:45;5.25;;;1.23;;
62014;SDS011;47970;52.396;9.586;2023-03-31T05:40:10;6.27;;;1.10;;
62014;SDS011;47970;52.396;9.586;2023-03-31T05:42:36;5.28;;;1.05;;
62014;SDS011;47970;52.396;9.586;2023-03-31T05:45:01;6.45;;;1.20;;
62014;SDS011;47970;52.396;9.586;2023-03-31T05:47:27;6.30;;;1.42;;
62014;SDS011;47970;52.396;9.586;2023-03-31T05:49:52;5.07;;;1.13;;
62014;SDS011;47970;52.396;9.586;2023-03-31T05:52:17;4.50;;;1.00;;
62014;SDS011;47970;52.396;9.586;2023-03-31T05:54:43;11.07;;;1.10;;
62014;SDS011;47970;52.396;9.586;2023-03-31T05:57:08;7.68;;;1.50;;
62014;SDS011;47970;52.396;9.586;2023-03-31T05:59:33;5.50;;;1.15;;
62014;SDS011;47970;52.396;9.586;2023-03-31T06:02:00;1.55;;;0.55;;
62014;SDS011;47970;52.396;9.586;2023-03-31T06:04:25;7.80;;;1.10;;
62014;SDS011;47970;52.396;9.586;2023-03-31T06:06:51;6.13;;;1.25;;
62014;SDS011;47970;52.396;9.586;2023-03-31T06:09:18;5.10;;;1.17;;
62014;SDS011;47970;52.396;9.586;2023-03-31T06:11:43;8.90;;;1.35;;
62014;SDS011;47970;52.396;9.586;2023-03-31T06:14:08;8.60;;;1.35;;
62014;SDS011;47970;52.396;9.586;2023-03-31T06:16:34;4.70;;;0.90;;
62014;SDS011;47970;52.396;9.586;2023-03-31T06:18:59;4.45;;;0.90;;
62014;SDS011;47970;52.396;9.586;2023-03-31T06:21:24;5.28;;;1.58;;
62014;SDS011;47970;52.396;9.586;2023-03-31T06:23:49;5.43;;;1.23;;
62014;SDS011;47970;52.396;9.586;2023-03-31T06:26:19;4.78;;;0.85;;
62014;SDS011;47970;52.396;9.586;2023-03-31T06:28:44;5.47;;;1.00;;
62014;SDS011;47970;52.396;9.586;2023-03-31T06:31:12;5.13;;;1.20;;
62014;SDS011;47970;52.396;9.586;2023-03-31T06:33:37;5.25;;;1.08;;
62014;SDS011;47970;52.396;9.586;2023-03-31T06:36:03;4.82;;;1.10;;
62014;SDS011;47970;52.396;9.586;2023-03-31T06:38:29;5.80;;;1.27;;
62014;SDS011;47970;52.396;9.586;2023-03-31T06:40:55;7.22;;;1.15;;
62014;SDS011;47970;52.396;9.586;2023-03-31T06:43:20;4.90;;;0.87;;
62014;SDS011;47970;52.396;9.586;2023-03-31T06:45:45;3.20;;;1.10;;
62014;SDS011;47970;52.396;9.586;2023-03-31T06:50:41;2.80;;;0.88;;
62014;SDS011;47970;52.396;9.586;2023-03-31T06:53:07;8.05;;;1.75;;
62014;SDS011;47970;52.396;9.586;2023-03-31T06:55:32;9.40;;;1.27;;
62014;SDS011;47970;52.396;9.586;2023-03-31T06:57:58;4.03;;;0.85;;
62014;SDS011;47970;52.396;9.586;2023-03-31T07:00:23;7.20;;;1.20;;
62014;SDS011;47970;52.396;9.586;2023-03-31T07:02:49;10.60;;;1.83;;
62014;SDS011;47970;52.396;9.586;2023-03-31T07:05:15;4.47;;;1.00;;
62014;SDS011;47970;52.396;9.586;2023-03-31T07:07:40;7.43;;;1.05;;
62014;SDS011;47970;52.396;9.586;2023-03-31T07:10:05;15.97;;;2.40;;
62014;SDS011;47970;52.396;9.586;2023-03-31T07:12:31;4.07;;;1.05;;
62014;SDS011;47970;52.396;9.586;2023-03-31T07:14:57;6.43;;;0.90;;
62014;SDS011;47970;52.396;9.586;2023-03-31T07:17:22;3.90;;;1.03;;
62014;SDS011;47970;52.396;9.586;2023-03-31T07:19:49;4.10;;;0.88;;
62014;SDS011;47970;52.396;9.586;2023-03-31T07:22:14;10.10;;;1.02;;
62014;SDS011;47970;52.396;9.586;2023-03-31T07:24:40;3.00;;;0.82;;
62014;SDS011;47970;52.396;9.586;2023-03-31T07:27:05;6.97;;;0.97;;
62014;SDS011;47970;52.396;9.586;2023-03-31T07:29:30;6.53;;;1.35;;
62014;SDS011;47970;52.396;9.586;2023-03-31T07:31:55;3.80;;;1.00;;
62014;SDS011;47970;52.396;9.586;2023-03-31T07:34:21;3.97;;;0.90;;
62014;SDS011;47970;52.396;9.586;2023-03-31T07:36:46;3.57;;;0.97;;
62014;SDS011;47970;52.396;9.586;2023-03-31T07:39:11;2.75;;;0.90;;
62014;SDS011;47970;52.396;9.586;2023-03-31T07:41:36;7.60;;;1.20;;
62014;SDS011;47970;52.396;9.586;2023-03-31T07:44:02;5.80;;;1.10;;
62014;SDS011;47970;52.396;9.586;2023-03-31T07:46:28;6.53;;;0.93;;
62014;SDS011;47970;52.396;9.586;2023-03-31T07:48:54;3.55;;;1.20;;
62014;SDS011;47970;52.396;9.586;2023-03-31T07:51:20;2.80;;;1.05;;
62014;SDS011;47970;52.396;9.586;2023-03-31T07:53:46;3.60;;;1.05;;
62014;SDS011;47970;52.396;9.586;2023-03-31T07:56:13;3.00;;;0.90;;
62014;SDS011;47970;52.396;9.586;2023-03-31T07:58:39;5.70;;;0.93;;
62014;SDS011;47970;52.396;9.586;2023-03-31T08:01:04;5.35;;;1.10;;
62014;SDS011;47970;52.396;9.586;2023-03-31T08:03:29;5.18;;;1.00;;
62014;SDS011;47970;52.396;9.586;2023-03-31T08:05:56;3.80;;;1.17;;
62014;SDS011;47970;52.396;9.586;2023-03-31T08:08:21;4.03;;;1.00;;
62014;SDS011;47970;52.396;9.586;2023-03-31T08:10:46;4.97;;;1.23;;
62014;SDS011;47970;52.396;9.586;2023-03-31T08:13:12;8.02;;;1.08;;
62014;SDS011;47970;52.396;9.586;2023-03-31T08:15:37;7.95;;;1.40;;
62014;SDS011;47970;52.396;9.586;2023-03-31T08:18:03;4.37;;;1.00;;
62014;SDS011;47970;52.396;9.586;2023-03-31T08:20:28;5.70;;;1.17;;
62014;SDS011;47970;52.396;9.586;2023-03-31T08:22:53;7.43;;;1.30;;
62014;SDS011;47970;52.396;9.586;2023-03-31T08:25:19;6.22;;;1.30;;
62014;SDS011;47970;52.396;9.586;2023-03-31T08:27:45;3.90;;;1.02;;
62014;SDS011;47970;52.396;9.586;2023-03-31T08:30:12;9.93;;;1.33;;
62014;SDS011;47970;52.396;9.586;2023-03-31T08:32:38;8.27;;;1.58;;
62014;SDS011;47970;52.396;9.586;2023-03-31T08:35:03;4.93;;;1.53;;
62014;SDS011;47970;52.396;9.586;2023-03-31T08:37:29;6.78;;;1.40;;
62014;SDS011;47970;52.396;9.586;2023-03-31T08:39:55;5.88;;;1.40;;
62014;SDS011;47970;52.396;9.586;2023-03-31T08:42:23;6.43;;;1.95;;
62014;SDS011;47970;52.396;9.586;2023-03-31T08:44:57;2.00;;;1.08;;
62014;SDS011;47970;52.396;9.586;2023-03-31T08:47:24;5.13;;;1.23;;
62014;SDS011;47970;52.396;9.586;2023-03-31T08:49:51;7.72;;;1.30;;
62014;SDS011;47970;52.396;9.586;2023-03-31T08:52:19;5.18;;;1.15;;
62014;SDS011;47970;52.396;9.586;2023-03-31T08:55:33;3.42;;;1.02;;
62014;SDS011;47970;52.396;9.586;2023-03-31T08:57:40;3.97;;;0.93;;
62014;SDS011;47970;52.396;9.586;2023-03-31T09:00:14;8.10;;;1.10;;
62014;SDS011;47970;52.396;9.586;2023-03-31T09:02:45;3.08;;;0.85;;
62014;SDS011;47970;52.396;9.586;2023-03-31T09:05:17;2.85;;;0.98;;
62014;SDS011;47970;52.396;9.586;2023-03-31T09:10:37;2.53;;;0.80;;
62014;SDS011;47970;52.396;9.586;2023-03-31T09:18:06;5.40;;;1.00;;
62014;SDS011;47970;52.396;9.586;2023-03-31T09:20:36;4.93;;;1.00;;
62014;SDS011;47970;52.396;9.586;2023-03-31T09:25:47;5.63;;;0.90;;
62014;SDS011;47970;52.396;9.586;2023-03-31T09:28:18;3.65;;;0.93;;
62014;SDS011;47970;52.396;9.586;2023-03-31T09:30:44;6.43;;;1.25;;
62014;SDS011;47970;52.396;9.586;2023-03-31T09:35:38;6.93;;;1.10;;
62014;SDS011;47970;52.396;9.586;2023-03-31T09:38:04;6.80;;;1.02;;
62014;SDS011;47970;52.396;9.586;2023-03-31T09:40:29;2.40;;;0.75;;
62014;SDS011;47970;52.396;9.586;2023-03-31T09:45:20;3.03;;;0.90;;
62014;SDS011;47970;52.396;9.586;2023-03-31T09:47:55;4.03;;;1.00;;
62014;SDS011;47970;52.396;9.586;2023-03-31T09:50:22;2.53;;;0.73;;
62014;SDS011;47970;52.396;9.586;2023-03-31T09:52:48;2.78;;;0.70;;
62014;SDS011;47970;52.396;9.586;2023-03-31T09:57:43;2.33;;;0.90;;
62014;SDS011;47970;52.396;9.586;2023-03-31T10:02:38;5.20;;;0.80;;
62014;SDS011;47970;52.396;9.586;2023-03-31T10:05:05;2.97;;;0.95;;
62014;SDS011;47970;52.396;9.586;2023-03-31T10:07:32;2.45;;;0.70;;
62014;SDS011;47970;52.396;9.586;2023-03-31T10:09:58;2.63;;;0.73;;
62014;SDS011;47970;52.396;9.586;2023-03-31T10:12:24;4.88;;;0.80;;
62014;SDS011;47970;52.396;9.586;2023-03-31T10:14:51;3.90;;;0.80;;
62014;SDS011;47970;52.396;9.586;2023-03-31T10:17:18;2.92;;;0.70;;
62014;SDS011;47970;52.396;9.586;2023-03-31T10:19:48;4.63;;;1.00;;
62014;SDS011;47970;52.396;9.586;2023-03-31T10:22:15;2.53;;;0.60;;
62014;SDS011;47970;52.396;9.586;2023-03-31T10:24:47;3.28;;;0.82;;
62014;SDS011;47970;52.396;9.586;2023-03-31T10:27:21;4.70;;;1.05;;
62014;SDS011;47970;52.396;9.586;2023-03-31T10:29:47;3.47;;;1.08;;
62014;SDS011;47970;52.396;9.586;2023-03-31T10:34:47;3.72;;;0.85;;
62014;SDS011;47970;52.396;9.586;2023-03-31T10:37:13;1.83;;;0.70;;
62014;SDS011;47970;52.396;9.586;2023-03-31T10:39:40;2.05;;;0.80;;
62014;SDS011;47970;52.396;9.586;2023-03-31T10:42:07;3.88;;;0.60;;
62014;SDS011;47970;52.396;9.586;2023-03-31T10:44:38;2.22;;;0.82;;
62014;SDS011;47970;52.396;9.586;2023-03-31T10:49:38;2.22;;;0.70;;
62014;SDS011;47970;52.396;9.586;2023-03-31T10:52:20;1.38;;;0.43;;
62014;SDS011;47970;52.396;9.586;2023-03-31T10:54:51;0.93;;;0.40;;
62014;SDS011;47970;52.396;9.586;2023-03-31T10:57:17;1.33;;;0.50;;
62014;SDS011;47970;52.396;9.586;2023-03-31T10:59:51;2.97;;;0.60;;
62014;SDS011;47970;52.396;9.586;2023-03-31T11:05:03;1.17;;;0.43;;
62014;SDS011;47970;52.396;9.586;2023-03-31T11:25:44;1.52;;;0.60;;
62014;SDS011;47970;52.396;9.586;2023-03-31T11:28:17;1.35;;;0.52;;
62014;SDS011;47970;52.396;9.586;2023-03-31T11:30:48;3.40;;;0.50;;
62014;SDS011;47970;52.396;9.586;2023-03-31T11:45:48;3.13;;;0.85;;
62014;SDS011;47970;52.396;9.586;2023-03-31T11:48:58;4.80;;;0.75;;
62014;SDS011;47970;52.396;9.586;2023-03-31T11:51:04;3.75;;;0.65;;
62014;SDS011;47970;52.396;9.586;2023-03-31T11:53:32;2.95;;;0.82;;
62014;SDS011;47970;52.396;9.586;2023-03-31T11:55:59;1.35;;;0.70;;
62014;SDS011;47970;52.396;9.586;2023-03-31T12:00:52;1.67;;;0.60;;
62014;SDS011;47970;52.396;9.586;2023-03-31T12:05:52;1.98;;;0.85;;
62014;SDS011;47970;52.396;9.586;2023-03-31T12:08:23;3.15;;;0.90;;
62014;SDS011;47970;52.396;9.586;2023-03-31T12:10:51;0.82;;;0.52;;
62014;SDS011;47970;52.396;9.586;2023-03-31T12:18:41;1.08;;;0.50;;
62014;SDS011;47970;52.396;9.586;2023-03-31T12:21:08;3.28;;;0.65;;
62014;SDS011;47970;52.396;9.586;2023-03-31T12:23:43;1.73;;;0.60;;
62014;SDS011;47970;52.396;9.586;2023-03-31T12:26:33;3.40;;;0.77;;
62014;SDS011;47970;52.396;9.586;2023-03-31T12:29:02;1.25;;;0.60;;
62014;SDS011;47970;52.396;9.586;2023-03-31T12:31:28;1.58;;;0.75;;
62014;SDS011;47970;52.396;9.586;2023-03-31T12:34:01;1.92;;;0.60;;
62014;SDS011;47970;52.396;9.586;2023-03-31T12:52:01;4.18;;;0.90;;
62014;SDS011;47970;52.396;9.586;2023-03-31T12:54:38;2.90;;;0.80;;
62014;SDS011;47970;52.396;9.586;2023-03-31T12:59:36;3.17;;;0.80;;
62014;SDS011;47970;52.396;9.586;2023-03-31T13:02:16;6.55;;;1.23;;
62014;SDS011;47970;52.396;9.586;2023-03-31T13:04:42;3.22;;;0.80;;
62014;SDS011;47970;52.396;9.586;2023-03-31T13:07:50;4.22;;;0.98;;
62014;SDS011;47970;52.396;9.586;2023-03-31T13:09:57;2.88;;;1.02;;
62014;SDS011;47970;52.396;9.586;2023-03-31T13:12:23;5.18;;;1.20;;
62014;SDS011;47970;52.396;9.586;2023-03-31T13:14:50;6.22;;;1.20;;
62014;SDS011;47970;52.396;9.586;2023-03-31T13:19:56;4.65;;;1.02;;
62014;SDS011;47970;52.396;9.586;2023-03-31T13:22:28;5.63;;;1.10;;
62014;SDS011;47970;52.396;9.586;2023-03-31T13:25:24;6.20;;;0.88;;
62014;SDS011;47970;52.396;9.586;2023-03-31T13:27:47;5.03;;;1.20;;
62014;SDS011;47970;52.396;9.586;2023-03-31T13:33:06;4.45;;;0.88;;
62014;SDS011;47970;52.396;9.586;2023-03-31T13:35:34;7.40;;;1.13;;
62014;SDS011;47970;52.396;9.586;2023-03-31T13:38:22;4.53;;;1.00;;
62014;SDS011;47970;52.396;9.586;2023-03-31T13:45:58;5.35;;;1.20;;
62014;SDS011;47970;52.396;9.586;2023-03-31T13:51:14;8.10;;;1.38;;
62014;SDS011;47970;52.396;9.586;2023-03-31T14:01:55;5.30;;;0.95;;
62014;SDS011;47970;52.396;9.586;2023-03-31T14:07:07;9.05;;;1.60;;
62014;SDS011;47970;52.396;9.586;2023-03-31T14:09:34;4.90;;;1.00;;
62014;SDS011;47970;52.396;9.586;2023-03-31T14:12:00;5.93;;;1.20;;
62014;SDS011;47970;52.396;9.586;2023-03-31T14:14:26;3.70;;;1.05;;
62014;SDS011;47970;52.396;9.586;2023-03-31T14:16:53;7.45;;;1.40;;
62014;SDS011;47970;52.396;9.586;2023-03-31T14:19:36;11.10;;;1.83;;
62014;SDS011;47970;52.396;9.586;2023-03-31T14:24:37;6.32;;;1.30;;
62014;SDS011;47970;52.396;9.586;2023-03-31T14:27:11;12.18;;;2.20;;
62014;SDS011;47970;52.396;9.586;2023-03-31T14:37:28;7.28;;;1.05;;
62014;SDS011;47970;52.396;9.586;2023-03-31T14:39:54;4.82;;;1.17;;
62014;SDS011;47970;52.396;9.586;2023-03-31T14:42:43;5.72;;;1.20;;
62014;SDS011;47970;52.396;9.586;2023-03-31T14:45:18;5.03;;;1.30;;
62014;SDS011;47970;52.396;9.586;2023-03-31T14:47:56;9.07;;;1.33;;
62014;SDS011;47970;52.396;9.586;2023-03-31T14:50:27;6.55;;;1.27;;
62014;SDS011;47970;52.396;9.586;2023-03-31T14:52:52;4.28;;;1.10;;
62014;SDS011;47970;52.396;9.586;2023-03-31T14:55:21;5.53;;;1.08;;
62014;SDS011;47970;52.396;9.586;2023-03-31T14:57:46;7.50;;;1.17;;
62014;SDS011;47970;52.396;9.586;2023-03-31T15:00:18;5.47;;;1.40;;
62014;SDS011;47970;52.396;9.586;2023-03-31T15:02:45;4.78;;;1.20;;
62014;SDS011;47970;52.396;9.586;2023-03-31T15:05:19;7.05;;;1.50;;
62014;SDS011;47970;52.396;9.586;2023-03-31T15:07:45;8.35;;;1.50;;
62014;SDS011;47970;52.396;9.586;2023-03-31T15:10:12;5.93;;;1.77;;
62014;SDS011;47970;52.396;9.586;2023-03-31T15:12:40;7.45;;;1.67;;
62014;SDS011;47970;52.396;9.586;2023-03-31T15:15:06;12.43;;;2.20;;
62014;SDS011;47970;52.396;9.586;2023-03-31T15:17:35;9.82;;;2.38;;
62014;SDS011;47970;52.396;9.586;2023-03-31T15:20:16;7.65;;;1.30;;
62014;SDS011;47970;52.396;9.586;2023-03-31T15:22:44;6.68;;;1.33;;
62014;SDS011;47970;52.396;9.586;2023-03-31T15:25:13;9.60;;;1.83;;
62014;SDS011;47970;52.396;9.586;2023-03-31T15:27:48;4.13;;;1.50;;
62014;SDS011;47970;52.396;9.586;2023-03-31T15:30:18;6.53;;;1.95;;
62014;SDS011;47970;52.396;9.586;2023-03-31T15:32:44;4.88;;;1.63;;
62014;SDS011;47970;52.396;9.586;2023-03-31T15:35:19;6.97;;;1.88;;
62014;SDS011;47970;52.396;9.586;2023-03-31T15:37:45;6.13;;;1.80;;
62014;SDS011;47970;52.396;9.586;2023-03-31T15:42:48;3.63;;;1.23;;
62014;SDS011;47970;52.396;9.586;2023-03-31T15:47:47;3.88;;;1.02;;
62014;SDS011;47970;52.396;9.586;2023-03-31T15:50:12;5.50;;;1.10;;
62014;SDS011;47970;52.396;9.586;2023-03-31T15:52:45;4.00;;;1.13;;
62014;SDS011;47970;52.396;9.586;2023-03-31T15:58:14;2.78;;;0.90;;
62014;SDS011;47970;52.396;9.586;2023-03-31T16:00:41;5.85;;;1.40;;
62014;SDS011;47970;52.396;9.586;2023-03-31T16:03:13;4.15;;;1.90;;
62014;SDS011;47970;52.396;9.586;2023-03-31T16:05:51;8.05;;;2.30;;
62014;SDS011;47970;52.396;9.586;2023-03-31T16:08:28;8.40;;;1.80;;
62014;SDS011;47970;52.396;9.586;2023-03-31T16:11:00;4.50;;;1.55;;
62014;SDS011;47970;52.396;9.586;2023-03-31T16:13:26;5.10;;;1.88;;
62014;SDS011;47970;52.396;9.586;2023-03-31T16:15:52;3.30;;;1.25;;
62014;SDS011;47970;52.396;9.586;2023-03-31T16:18:29;4.05;;;1.60;;
62014;SDS011;47970;52.396;9.586;2023-03-31T16:20:56;4.43;;;1.38;;
62014;SDS011;47970;52.396;9.586;2023-03-31T16:23:24;3.92;;;1.17;;
62014;SDS011;47970;52.396;9.586;2023-03-31T16:25:50;4.47;;;1.35;;
62014;SDS011;47970;52.396;9.586;2023-03-31T16:28:16;5.68;;;1.50;;
62014;SDS011;47970;52.396;9.586;2023-03-31T16:30:44;8.13;;;1.70;;
62014;SDS011;47970;52.396;9.586;2023-03-31T16:33:11;5.55;;;1.98;;
62014;SDS011;47970;52.396;9.586;2023-03-31T16:35:40;5.05;;;1.60;;
62014;SDS011;47970;52.396;9.586;2023-03-31T16:38:06;8.95;;;1.70;;
62014;SDS011;47970;52.396;9.586;2023-03-31T16:40:35;8.07;;;2.00;;
62014;SDS011;47970;52.396;9.586;2023-03-31T16:45:32;4.32;;;1.80;;
62014;SDS011;47970;52.396;9.586;2023-03-31T16:47:57;4.97;;;1.70;;
62014;SDS011;47970;52.396;9.586;2023-03-31T16:50:23;7.63;;;1.92;;
62014;SDS011;47970;52.396;9.586;2023-03-31T16:52:48;7.32;;;1.70;;
62014;SDS011;47970;52.396;9.586;2023-03-31T16:55:13;4.75;;;1.70;;
62014;SDS011;47970;52.396;9.586;2023-03-31T16:57:39;6.03;;;1.90;;
62014;SDS011;47970;52.396;9.586;2023-03-31T17:00:04;6.07;;;1.55;;
62014;SDS011;47970;52.396;9.586;2023-03-31T17:02:30;7.10;;;2.13;;
62014;SDS011;47970;52.396;9.586;2023-03-31T17:04:55;7.68;;;1.80;;
62014;SDS011;47970;52.396;9.586;2023-03-31T17:07:21;3.60;;;1.67;;
62014;SDS011;47970;52.396;9.586;2023-03-31T17:09:47;8.63;;;2.42;;
62014;SDS011;47970;52.396;9.586;2023-03-31T17:12:12;6.90;;;2.30;;
62014;SDS011;47970;52.396;9.586;2023-03-31T17:14:37;6.30;;;2.00;;
62014;SDS011;47970;52.396;9.586;2023-03-31T17:17:03;6.47;;;2.40;;
62014;SDS011;47970;52.396;9.586;2023-03-31T17:19:28;6.25;;;2.20;;
62014;SDS011;47970;52.396;9.586;2023-03-31T17:21:54;7.35;;;2.25;;
62014;SDS011;47970;52.396;9.586;2023-03-31T17:24:19;7.43;;;2.27;;
62014;SDS011;47970;52.396;9.586;2023-03-31T17:26:46;7.35;;;1.60;;
62014;SDS011;47970;52.396;9.586;2023-03-31T17:29:11;7.43;;;2.43;;
62014;SDS011;47970;52.396;9.586;2023-03-31T17:31:36;8.00;;;1.80;;
62014;SDS011;47970;52.396;9.586;2023-03-31T17:34:01;4.83;;;1.60;;
62014;SDS011;47970;52.396;9.586;2023-03-31T17:36:27;6.75;;;1.63;;
62014;SDS011;47970;52.396;9.586;2023-03-31T17:38:52;4.32;;;1.60;;
62014;SDS011;47970;52.396;9.586;2023-03-31T17:41:18;7.78;;;1.92;;
62014;SDS011;47970;52.396;9.586;2023-03-31T17:43:44;8.35;;;1.83;;
62014;SDS011;47970;52.396;9.586;2023-03-31T17:46:09;7.85;;;2.58;;